Airfield :
LOGIN :

Register | Disclaimer

   EN    FR    IT 

 










Legend :    VFR   Marginal VFR   IFR   Intensive IFR   Very Intensive IFR
Visi :
Ceiling :
>= 8 km
>= 3000ft
5 to 8 km
1000 to 3000 ft
1500m to 5 km
500 to 1000 ft
800 to 1500m
200 to 500 ft
< 800m
< 200 ft
Symbols :   Thunderstorms  Fog  Heavy snow  Heavy precipitations  Wind > 20 kt
SIGMETs :     Misc.  Thunderstorms  Icing  Turbulence  Mountain Waves  Volcanic Ashes






- Airport Elevation : 284 ft


EGUW - RAF Wattisham

CURRENT METAR :
  • 131020Z 28016KT 9999 FEW015 BKN032 06/04 Q0978 NOSIG RMK BLU BLU

EXPIRED METARs :
  • 130950Z 28016KT 9999 FEW010 BKN030 06/04 Q0977
  • 130922Z 28012KT 9999 BKN030 05/05 Q0977 NOSIG RMK BLU BLU
  • 130850Z 29012KT 9999 BKN012 OVC032 05/05 Q0976 BECMG SCT015 RMK GRN BECMG WHT
  • 130821Z 30014KT 9999 -RA SCT010 OVC029 05/04 Q0975 BECMG BKN015 RMK GRN BECMG WHT
  • 130750Z 30014KT 9999 -RA BKN007 OVC025 05/04 Q0974 GRN BECMG BKN015 RMK GRN BECMG WHT

TAF TAF EGUW
Valid from the 13 at 09:00 until the 13 at 18:00 UTC


130746Z 1309/1318 28015G25KT 9999 -RA BKN008
BECMG 1309/1312 FEW025
TEMPO 1312/1318 SCT015



MET'MAP, your aeronautical weather chart ! - Copyright ORBIFLY December 2007 - Disclaimer

ORBIFLY MET'MAP TEAM :

Programming & Development : Alexandra Zaïnal
Concept & original design : Baudouin d'Aumeries
Assistance for programming : Marc-Olivier Méhu
Technical & hardware support : Manuel Goepfert

Contact : metmap@orbifly.com




SOURCES & CREDITS :

   NOAA